Time;durP1;ratioP1;P1;durP2;ratioP2;P2;SDS_P1;SDS_P2;PMS_P1;PMS_P2;Temp;Humidity;BMP_temperature;BMP_pressure;BME280_temperature;BME280_humidity;BME280_pressure;Samples;Min_cycle;Max_cycle;Signal;HPM_P1;HPM_P2
2023/12/14 00:01:14;;;;;;;9.52;4.43;;;6.20;99.90;;;;;;5072360;28;20444;-89
2023/12/14 00:03:45;;;;;;;8.65;3.83;;;6.20;99.90;;;;;;5072196;28;20136;-89
2023/12/14 00:06:11;;;;;;;9.32;4.10;;;6.20;99.90;;;;;;5058778;28;20040;-89
2023/12/14 00:08:37;;;;;;;9.20;4.45;;;6.20;99.90;;;;;;5069956;28;20089;-89
2023/12/14 00:11:09;;;;;;;10.70;4.95;;;6.20;99.90;;;;;;5054922;28;20041;-89
2023/12/14 00:13:35;;;;;;;8.77;3.78;;;6.20;99.90;;;;;;5048764;28;20048;-89
2023/12/14 00:16:01;;;;;;;10.82;4.60;;;6.20;99.90;;;;;;5040852;28;20064;-89
2023/12/14 00:18:26;;;;;;;10.73;4.85;;;6.20;99.90;;;;;;5070265;28;20029;-89
2023/12/14 00:20:53;;;;;;;11.55;4.45;;;6.20;99.90;;;;;;5053765;28;20116;-89
2023/12/14 00:23:28;;;;;;;9.10;4.20;;;6.20;99.90;;;;;;5041569;28;20041;-89
2023/12/14 00:25:53;;;;;;;9.60;4.38;;;6.20;99.90;;;;;;5050676;28;20028;-89
2023/12/14 00:28:19;;;;;;;9.07;4.43;;;6.20;99.90;;;;;;5060704;28;20401;-89
2023/12/14 00:30:45;;;;;;;10.43;4.88;;;6.20;99.90;;;;;;5059863;28;20063;-90
2023/12/14 00:33:10;;;;;;;10.25;5.72;;;6.20;99.90;;;;;;5040886;28;20036;-89
2023/12/14 00:35:36;;;;;;;9.40;4.28;;;6.20;99.90;;;;;;5064650;28;20496;-89
2023/12/14 00:38:01;;;;;;;8.50;3.90;;;6.20;99.90;;;;;;5054706;28;20039;-89
2023/12/14 00:40:27;;;;;;;9.27;4.32;;;6.20;99.90;;;;;;5071368;28;20040;-89
2023/12/14 00:42:53;;;;;;;8.73;4.00;;;6.20;99.90;;;;;;5071417;28;20113;-89
2023/12/14 00:45:18;;;;;;;8.15;3.90;;;6.20;99.90;;;;;;5071768;28;20048;-89
2023/12/14 00:47:44;;;;;;;8.63;3.80;;;6.10;99.90;;;;;;5054788;28;20036;-89
2023/12/14 00:50:10;;;;;;;8.57;4.20;;;6.20;99.90;;;;;;5054921;28;20083;-89
2023/12/14 00:52:36;;;;;;;10.02;4.60;;;6.20;99.90;;;;;;5071187;28;20568;-89
2023/12/14 00:55:01;;;;;;;8.32;3.72;;;6.20;99.90;;;;;;5071408;28;20041;-89
2023/12/14 00:57:27;;;;;;;8.07;4.20;;;6.20;99.90;;;;;;5054876;28;20039;-89
2023/12/14 00:59:52;;;;;;;10.10;4.43;;;6.20;99.90;;;;;;5054421;28;20440;-89
2023/12/14 01:02:18;;;;;;;9.27;4.13;;;6.10;99.90;;;;;;5054104;28;20044;-89
2023/12/14 01:04:43;;;;;;;8.32;3.83;;;6.10;99.90;;;;;;5070986;28;20131;-88
2023/12/14 01:07:09;;;;;;;8.65;4.13;;;6.10;99.90;;;;;;5070969;28;20045;-89
2023/12/14 01:09:35;;;;;;;9.35;4.38;;;6.10;99.90;;;;;;5070498;28;20052;-89
2023/12/14 01:12:01;;;;;;;9.30;3.88;;;6.10;99.90;;;;;;5054227;28;20036;-89
2023/12/14 01:14:26;;;;;;;9.27;4.15;;;6.10;99.90;;;;;;5054007;28;20040;-89
2023/12/14 01:16:52;;;;;;;9.30;4.35;;;6.10;99.90;;;;;;5071176;28;20117;-89
2023/12/14 01:19:18;;;;;;;9.30;4.40;;;6.10;99.90;;;;;;5069861;28;20033;-89
2023/12/14 01:21:43;;;;;;;9.50;4.70;;;6.10;99.90;;;;;;5053796;28;20094;-89
2023/12/14 01:24:09;;;;;;;9.15;4.10;;;6.10;99.90;;;;;;5070285;28;20132;-89
2023/12/14 01:26:34;;;;;;;8.18;3.58;;;6.10;99.90;;;;;;5054205;28;20119;-89
2023/12/14 01:29:00;;;;;;;8.50;4.13;;;6.10;99.90;;;;;;5053822;28;20495;-89
2023/12/14 01:31:26;;;;;;;9.07;4.30;;;6.10;99.90;;;;;;5053924;28;20044;-89
2023/12/14 01:33:52;;;;;;;10.10;4.18;;;6.10;99.90;;;;;;5070456;28;20084;-89
2023/12/14 01:36:21;;;;;;;9.55;4.07;;;6.10;99.90;;;;;;5054096;28;20068;-88
2023/12/14 01:38:47;;;;;;;7.72;3.70;;;6.10;99.90;;;;;;5070398;28;20033;-88
2023/12/14 01:41:13;;;;;;;9.43;3.53;;;6.10;99.90;;;;;;5053413;28;20045;-89
2023/12/14 01:43:39;;;;;;;9.32;3.50;;;6.10;99.90;;;;;;5070039;28;20127;-88
2023/12/14 01:46:04;;;;;;;10.00;4.47;;;6.10;99.90;;;;;;5069880;28;20123;-88
2023/12/14 01:48:30;;;;;;;10.57;4.68;;;6.10;99.90;;;;;;5053762;28;20040;-89
2023/12/14 01:50:56;;;;;;;11.13;5.35;;;6.10;99.90;;;;;;5069952;28;20419;-88
2023/12/14 01:53:21;;;;;;;10.20;4.97;;;6.10;99.90;;;;;;5070331;28;20036;-89
2023/12/14 01:55:47;;;;;;;9.25;4.25;;;6.10;99.90;;;;;;5053387;28;20506;-89
2023/12/14 01:58:13;;;;;;;8.75;3.47;;;6.10;99.90;;;;;;5053530;28;20029;-89
2023/12/14 02:00:44;;;;;;;9.27;4.03;;;6.10;99.90;;;;;;5053020;28;20033;-89
2023/12/14 02:03:10;;;;;;;10.45;4.05;;;6.10;99.90;;;;;;5069730;28;20044;-89
2023/12/14 02:05:36;;;;;;;8.77;3.67;;;6.10;99.90;;;;;;5069614;28;20059;-89
2023/12/14 02:08:02;;;;;;;8.45;3.90;;;6.10;99.90;;;;;;5053425;28;20048;-89
2023/12/14 02:10:28;;;;;;;8.35;3.60;;;6.10;99.90;;;;;;5053425;28;20048;-88
2023/12/14 02:12:53;;;;;;;9.77;4.60;;;6.10;99.90;;;;;;5053076;28;20519;-89
2023/12/14 02:15:20;;;;;;;8.85;4.10;;;6.10;99.90;;;;;;5053138;28;20044;-88
2023/12/14 02:17:45;;;;;;;9.50;4.05;;;6.10;99.90;;;;;;5069802;28;20170;-89
2023/12/14 02:20:11;;;;;;;8.93;3.58;;;6.10;99.90;;;;;;5069354;28;20119;-89
2023/12/14 02:22:54;;;;;;;9.95;4.00;;;6.10;99.90;;;;;;5052666;28;20418;-89
2023/12/14 02:25:20;;;;;;;9.75;3.25;;;6.00;99.90;;;;;;5053130;28;20059;-89
2023/12/14 02:27:47;;;;;;;9.43;4.20;;;6.10;99.90;;;;;;5054044;28;20044;-89
2023/12/14 02:30:13;;;;;;;9.13;4.07;;;6.10;99.90;;;;;;5053884;28;20083;-89
2023/12/14 02:32:39;;;;;;;10.70;4.22;;;6.10;99.90;;;;;;5052409;28;20033;-89
2023/12/14 02:35:06;;;;;;;9.55;4.22;;;6.00;99.90;;;;;;5069819;28;20048;-89
2023/12/14 02:37:33;;;;;;;9.80;4.60;;;6.00;99.90;;;;;;5053155;28;20036;-89
2023/12/14 02:40:00;;;;;;;10.65;4.32;;;6.00;99.90;;;;;;5052452;28;20569;-89
2023/12/14 02:42:26;;;;;;;9.75;4.28;;;6.00;99.90;;;;;;5052788;28;20038;-89
2023/12/14 02:44:53;;;;;;;9.38;4.28;;;6.00;99.90;;;;;;5069092;28;20439;-89
2023/12/14 02:47:19;;;;;;;9.15;3.65;;;6.00;99.90;;;;;;5052770;28;20127;-89
2023/12/14 02:49:44;;;;;;;7.85;3.25;;;6.00;99.90;;;;;;5052887;28;20127;-89
2023/12/14 02:52:10;;;;;;;9.23;3.08;;;6.00;99.90;;;;;;5052609;28;20071;-89
2023/12/14 02:54:39;;;;;;;8.85;3.83;;;6.00;99.90;;;;;;5052484;28;20079;-88
2023/12/14 02:57:05;;;;;;;9.07;3.65;;;6.00;99.90;;;;;;5052861;28;20037;-89
2023/12/14 02:59:30;;;;;;;9.85;3.78;;;5.90;99.90;;;;;;5052439;28;20044;-90
2023/12/14 03:01:56;;;;;;;9.57;3.67;;;5.90;99.90;;;;;;5068727;28;20033;-89
2023/12/14 03:04:21;;;;;;;10.63;4.13;;;5.90;99.90;;;;;;5068720;28;20042;-89
2023/12/14 03:06:47;;;;;;;8.82;3.47;;;6.00;99.90;;;;;;5069123;28;20043;-89
2023/12/14 03:09:13;;;;;;;9.15;4.03;;;5.90;99.90;;;;;;5052831;28;20395;-89
2023/12/14 03:11:38;;;;;;;9.38;3.88;;;5.90;99.90;;;;;;5052640;28;20055;-89
2023/12/14 03:14:04;;;;;;;9.43;3.35;;;6.00;99.90;;;;;;5052638;28;20411;-89
2023/12/14 03:16:29;;;;;;;7.32;3.50;;;5.90;99.90;;;;;;5052465;28;20036;-89
2023/12/14 03:18:56;;;;;;;8.93;3.17;;;5.90;99.90;;;;;;5052706;28;20139;-89
2023/12/14 03:21:23;;;;;;;11.20;4.10;;;5.90;99.90;;;;;;5052288;28;20032;-89
2023/12/14 03:23:49;;;;;;;10.60;4.35;;;5.90;99.90;;;;;;5068664;28;20036;-89
2023/12/14 03:26:15;;;;;;;9.10;4.30;;;5.90;99.90;;;;;;5069126;28;20131;-89
2023/12/14 03:28:40;;;;;;;8.73;4.18;;;6.00;99.90;;;;;;5068943;28;20115;-89
2023/12/14 03:31:06;;;;;;;8.95;3.28;;;5.90;99.90;;;;;;5052330;28;20074;-89
2023/12/14 03:33:31;;;;;;;9.82;4.22;;;5.90;99.90;;;;;;5069318;28;20142;-89
2023/12/14 03:35:57;;;;;;;9.68;4.07;;;5.90;99.90;;;;;;5052684;28;20048;-89
2023/12/14 03:38:23;;;;;;;9.20;3.90;;;5.90;99.90;;;;;;5069024;28;20086;-89
2023/12/14 03:40:48;;;;;;;8.98;4.28;;;5.90;99.90;;;;;;5069204;28;20055;-89
2023/12/14 03:43:14;;;;;;;9.93;3.42;;;5.90;99.90;;;;;;5053308;28;20040;-88
2023/12/14 03:45:39;;;;;;;7.97;3.38;;;5.90;99.90;;;;;;5072027;28;20099;-88
2023/12/14 03:48:05;;;;;;;9.85;3.60;;;5.90;99.90;;;;;;5072222;28;20496;-89
2023/12/14 03:50:32;;;;;;;8.43;3.40;;;5.90;99.90;;;;;;5055244;28;20040;-89
2023/12/14 03:52:58;;;;;;;8.70;3.85;;;5.90;99.90;;;;;;5055124;28;20048;-88
2023/12/14 03:55:23;;;;;;;9.60;4.07;;;5.90;99.90;;;;;;5055340;28;20036;-89
2023/12/14 03:57:49;;;;;;;9.98;4.03;;;5.90;99.90;;;;;;5055616;28;20424;-88
2023/12/14 04:00:15;;;;;;;9.15;3.55;;;5.90;99.90;;;;;;5072451;28;20040;-89
2023/12/14 04:02:41;;;;;;;8.75;3.13;;;5.90;99.90;;;;;;5055512;28;20028;-88
2023/12/14 04:05:08;;;;;;;8.95;3.67;;;5.90;99.90;;;;;;5055799;28;20581;-89
2023/12/14 04:07:40;;;;;;;10.35;4.28;;;5.90;99.90;;;;;;5055530;28;20037;-89
2023/12/14 04:10:15;;;;;;;10.48;3.80;;;5.90;99.90;;;;;;5055577;28;20045;-89
2023/12/14 04:12:41;;;;;;;9.43;3.35;;;5.90;99.90;;;;;;5055237;28;20033;-89
2023/12/14 04:15:09;;;;;;;10.13;4.03;;;5.90;99.90;;;;;;5055307;28;20044;-89
2023/12/14 04:17:34;;;;;;;9.27;4.03;;;5.90;99.90;;;;;;5071470;28;20119;-89
2023/12/14 04:20:01;;;;;;;9.15;4.40;;;5.90;99.90;;;;;;5071907;28;20135;-89
2023/12/14 04:22:27;;;;;;;13.00;4.35;;;5.90;99.90;;;;;;5071402;28;20036;-89
2023/12/14 04:24:53;;;;;;;9.85;3.63;;;5.90;99.90;;;;;;5054579;28;20127;-90
2023/12/14 04:27:18;;;;;;;9.77;3.97;;;5.90;99.90;;;;;;5071780;28;20119;-90
2023/12/14 04:29:44;;;;;;;13.00;3.78;;;5.90;99.90;;;;;;5055293;28;20438;-89
2023/12/14 04:32:10;;;;;;;9.82;3.97;;;5.90;99.90;;;;;;5055361;28;20051;-89
2023/12/14 04:34:36;;;;;;;9.55;3.80;;;5.90;99.90;;;;;;5071533;28;20407;-89
2023/12/14 04:37:01;;;;;;;9.82;3.33;;;5.90;99.90;;;;;;5054811;28;20511;-89
2023/12/14 04:39:27;;;;;;;8.93;3.63;;;5.90;99.90;;;;;;5055163;28;20411;-90
2023/12/14 04:41:53;;;;;;;9.40;3.85;;;5.90;99.90;;;;;;5055015;28;20037;-90
2023/12/14 04:44:21;;;;;;;8.88;3.83;;;5.90;99.90;;;;;;5056509;28;20040;-90
2023/12/14 04:46:50;;;;;;;8.65;3.33;;;5.90;99.90;;;;;;5059758;28;20058;-89
2023/12/14 04:49:16;;;;;;;8.30;2.97;;;5.90;99.90;;;;;;5071695;28;20427;-90
2023/12/14 04:51:42;;;;;;;9.68;3.45;;;5.90;99.90;;;;;;5054829;28;20509;-90
2023/12/14 04:54:08;;;;;;;9.27;3.30;;;5.80;99.90;;;;;;5054248;28;20131;-90
2023/12/14 04:56:34;;;;;;;10.00;3.47;;;5.90;99.90;;;;;;5054603;28;20040;-90
2023/12/14 04:59:00;;;;;;;11.85;4.30;;;5.90;99.90;;;;;;5054645;28;20098;-90
2023/12/14 05:01:28;;;;;;;8.65;3.80;;;5.90;99.90;;;;;;5054697;28;20032;-89
2023/12/14 05:03:55;;;;;;;7.63;3.30;;;5.90;99.90;;;;;;5070340;28;20079;-89
2023/12/14 05:06:20;;;;;;;8.48;3.70;;;5.90;99.90;;;;;;5054141;28;20044;-90
2023/12/14 05:08:46;;;;;;;10.32;4.53;;;5.90;99.90;;;;;;5070728;28;20118;-90
2023/12/14 05:11:15;;;;;;;11.60;4.47;;;5.90;99.90;;;;;;5070746;28;20123;-89
2023/12/14 05:13:41;;;;;;;11.82;4.07;;;5.90;99.90;;;;;;5053869;28;20094;-90
2023/12/14 05:16:12;;;;;;;10.52;3.40;;;5.80;99.90;;;;;;5054595;28;20442;-89
2023/12/14 05:18:37;;;;;;;9.57;4.10;;;5.90;99.90;;;;;;5054246;28;20503;-90
2023/12/14 05:21:03;;;;;;;10.38;3.67;;;5.90;99.90;;;;;;5053636;28;20072;-90
2023/12/14 05:23:29;;;;;;;10.57;3.80;;;5.90;99.90;;;;;;5052792;28;20093;-90
2023/12/14 05:25:54;;;;;;;8.77;3.75;;;5.80;99.90;;;;;;5069759;28;20036;-90
2023/12/14 05:28:20;;;;;;;8.68;4.32;;;5.80;99.90;;;;;;5069968;28;20133;-90
2023/12/14 05:30:46;;;;;;;12.45;3.92;;;5.80;99.90;;;;;;5053389;28;20043;-90
2023/12/14 05:33:11;;;;;;;8.35;3.38;;;5.80;99.90;;;;;;5053562;28;20037;-90
2023/12/14 05:35:37;;;;;;;9.02;2.85;;;5.80;99.90;;;;;;5070054;28;20143;-89
2023/12/14 05:38:02;;;;;;;7.25;3.25;;;5.80;99.90;;;;;;5053342;28;20474;-89
2023/12/14 05:40:28;;;;;;;10.20;3.80;;;5.80;99.90;;;;;;5053635;28;20127;-90
2023/12/14 05:42:54;;;;;;;11.18;3.75;;;5.80;99.90;;;;;;5069786;28;20567;-89
2023/12/14 05:45:20;;;;;;;8.93;3.90;;;5.80;99.90;;;;;;5052998;28;20051;-89
2023/12/14 05:47:46;;;;;;;8.50;3.58;;;5.80;99.90;;;;;;5052988;28;20037;-90
2023/12/14 05:50:12;;;;;;;9.45;3.40;;;5.80;99.90;;;;;;5053423;28;20042;-89
2023/12/14 05:52:38;;;;;;;9.23;3.35;;;5.80;99.90;;;;;;5069757;28;20107;-89
2023/12/14 05:55:04;;;;;;;9.05;3.35;;;5.80;99.90;;;;;;5069488;28;20495;-90
2023/12/14 05:57:30;;;;;;;10.00;3.60;;;5.80;99.90;;;;;;5053489;28;20047;-89
2023/12/14 05:59:56;;;;;;;7.70;3.03;;;5.80;99.90;;;;;;5053411;28;20040;-89
2023/12/14 06:02:22;;;;;;;8.02;3.63;;;5.80;99.90;;;;;;5053059;28;20499;-89
2023/12/14 06:04:48;;;;;;;9.82;3.35;;;5.80;99.90;;;;;;5052705;28;20093;-90
2023/12/14 06:07:17;;;;;;;10.45;5.30;;;5.80;99.90;;;;;;5052689;28;20045;-90
2023/12/14 06:09:43;;;;;;;12.27;4.85;;;5.80;99.90;;;;;;5069518;28;20040;-90
2023/12/14 06:12:08;;;;;;;9.75;4.07;;;5.80;99.90;;;;;;5069872;28;20047;-90
2023/12/14 06:14:35;;;;;;;12.60;4.70;;;5.80;99.90;;;;;;5052677;28;20424;-89
2023/12/14 06:17:00;;;;;;;11.48;4.60;;;5.80;99.90;;;;;;5052759;28;20040;-90
2023/12/14 06:19:26;;;;;;;11.07;4.63;;;5.80;99.90;;;;;;5069723;28;20032;-90
2023/12/14 06:21:52;;;;;;;10.73;4.60;;;5.80;99.90;;;;;;5053043;28;20040;-90
2023/12/14 06:24:17;;;;;;;11.15;3.55;;;5.80;99.90;;;;;;5068713;28;20123;-89
2023/12/14 06:26:46;;;;;;;12.30;3.78;;;5.80;99.90;;;;;;5044159;28;20059;-89
2023/12/14 06:29:12;;;;;;;9.25;3.95;;;5.80;99.90;;;;;;5040806;28;20063;-90
2023/12/14 06:31:38;;;;;;;9.73;4.50;;;5.80;99.90;;;;;;5064471;28;20500;-90
2023/12/14 06:34:05;;;;;;;9.32;3.83;;;5.80;99.90;;;;;;5046598;28;20040;-89
2023/12/14 06:36:31;;;;;;;11.68;4.60;;;5.80;99.90;;;;;;5052787;28;20036;-89
2023/12/14 06:39:00;;;;;;;11.90;4.13;;;5.80;99.90;;;;;;5061470;28;20036;-89
2023/12/14 06:41:27;;;;;;;12.77;5.03;;;5.80;99.90;;;;;;5069439;28;20472;-89
2023/12/14 06:43:53;;;;;;;12.52;4.68;;;5.80;99.90;;;;;;5069228;28;20090;-89
2023/12/14 06:46:19;;;;;;;12.05;4.72;;;5.80;99.90;;;;;;5069202;28;20131;-90
2023/12/14 06:48:45;;;;;;;11.60;5.18;;;5.80;99.90;;;;;;5060482;28;20075;-88
2023/12/14 06:51:11;;;;;;;9.38;3.85;;;5.80;99.90;;;;;;5058987;28;20041;-90
2023/12/14 06:53:40;;;;;;;9.95;4.25;;;5.80;99.90;;;;;;5043075;28;20033;-89
2023/12/14 06:56:09;;;;;;;10.07;4.25;;;5.80;99.90;;;;;;5054313;28;20037;-90
2023/12/14 06:58:35;;;;;;;10.50;5.28;;;5.80;99.90;;;;;;5062792;28;20040;-89
2023/12/14 07:01:01;;;;;;;12.90;4.60;;;5.80;99.90;;;;;;5042189;28;20048;-89
2023/12/14 07:03:26;;;;;;;13.70;4.38;;;5.80;99.90;;;;;;5050569;28;20134;-89
2023/12/14 07:05:52;;;;;;;11.38;4.65;;;5.80;99.90;;;;;;5053521;28;20515;-90
2023/12/14 07:08:17;;;;;;;11.73;5.07;;;5.80;99.90;;;;;;5048477;28;20182;-90
2023/12/14 07:10:43;;;;;;;9.25;4.10;;;5.80;99.90;;;;;;5052364;28;20040;-89
2023/12/14 07:13:08;;;;;;;11.90;4.75;;;5.80;99.90;;;;;;5052805;28;20052;-89
2023/12/14 07:15:34;;;;;;;9.65;4.05;;;5.80;99.90;;;;;;5052490;28;20036;-88
2023/12/14 07:18:00;;;;;;;9.52;4.05;;;5.80;99.90;;;;;;5053352;28;20044;-89
2023/12/14 07:20:25;;;;;;;9.13;4.15;;;5.80;99.90;;;;;;5056069;28;20047;-89
2023/12/14 07:22:51;;;;;;;9.23;3.55;;;5.80;99.90;;;;;;5056180;28;20037;-89
2023/12/14 07:25:16;;;;;;;11.00;4.60;;;5.70;99.90;;;;;;5055313;28;20521;-89
2023/12/14 07:27:43;;;;;;;9.77;4.05;;;5.70;99.90;;;;;;5055575;28;20037;-89
2023/12/14 07:30:09;;;;;;;10.07;4.45;;;5.70;99.90;;;;;;5055444;28;20044;-89
2023/12/14 07:32:35;;;;;;;9.98;4.07;;;5.80;99.90;;;;;;5053119;28;20613;-89
2023/12/14 07:35:01;;;;;;;10.65;4.03;;;5.70;99.90;;;;;;5055592;28;20041;-90
2023/12/14 07:37:26;;;;;;;12.55;5.57;;;5.80;99.90;;;;;;5056086;28;20058;-89
2023/12/14 07:39:52;;;;;;;10.88;4.30;;;5.70;99.90;;;;;;5056182;28;20036;-89
2023/12/14 07:42:19;;;;;;;9.02;4.03;;;5.70;99.90;;;;;;5055814;28;20162;-90
2023/12/14 07:44:46;;;;;;;11.95;4.68;;;5.70;99.90;;;;;;5054322;28;20048;-89
2023/12/14 07:47:11;;;;;;;10.18;5.07;;;5.80;99.90;;;;;;5068459;28;20044;-89
2023/12/14 07:49:37;;;;;;;10.55;4.88;;;5.70;99.90;;;;;;5048785;28;20047;-89
2023/12/14 07:52:03;;;;;;;11.40;4.43;;;5.70;99.90;;;;;;5055842;28;20408;-89
2023/12/14 07:54:28;;;;;;;11.07;4.55;;;5.80;99.90;;;;;;5071683;28;20094;-89
2023/12/14 07:56:54;;;;;;;11.00;4.45;;;5.70;99.90;;;;;;5055243;28;20036;-88
2023/12/14 07:59:20;;;;;;;8.77;3.67;;;5.70;99.90;;;;;;5048835;28;20430;-89
2023/12/14 08:01:46;;;;;;;11.40;5.57;;;5.70;99.90;;;;;;5064040;28;20037;-89
2023/12/14 08:04:12;;;;;;;11.98;5.00;;;5.70;99.90;;;;;;5072416;28;20044;-89
2023/12/14 08:06:40;;;;;;;9.73;3.88;;;5.80;99.90;;;;;;5072276;28;20052;-89
2023/12/14 08:09:06;;;;;;;13.18;4.55;;;5.70;99.90;;;;;;5072151;28;20041;-89
2023/12/14 08:11:32;;;;;;;9.52;4.07;;;5.70;99.90;;;;;;5063891;28;20097;-89
2023/12/14 08:13:58;;;;;;;11.00;4.97;;;5.80;99.90;;;;;;5071772;28;20041;-89
2023/12/14 08:16:24;;;;;;;9.88;3.75;;;5.70;99.90;;;;;;5055669;28;20103;-89
2023/12/14 08:18:49;;;;;;;12.57;5.15;;;5.70;99.90;;;;;;5072284;28;20044;-89
2023/12/14 08:21:15;;;;;;;13.23;5.55;;;5.70;99.90;;;;;;5055160;28;20043;-89
2023/12/14 08:23:42;;;;;;;10.23;4.35;;;5.80;99.90;;;;;;5054671;28;20048;-89
2023/12/14 08:26:09;;;;;;;9.73;4.40;;;5.80;99.90;;;;;;5055391;28;20032;-88
2023/12/14 08:28:35;;;;;;;10.32;4.45;;;5.80;99.90;;;;;;5054619;28;20048;-89
2023/12/14 08:31:02;;;;;;;14.50;5.13;;;5.80;99.90;;;;;;5055203;28;20041;-89
2023/12/14 08:33:29;;;;;;;11.30;5.38;;;5.80;99.90;;;;;;5055018;28;20124;-89
2023/12/14 08:35:55;;;;;;;11.25;5.28;;;5.80;99.90;;;;;;5051888;28;20456;-89
2023/12/14 08:38:20;;;;;;;11.88;5.25;;;5.80;99.90;;;;;;5042931;28;20043;-89
2023/12/14 08:40:46;;;;;;;12.88;5.40;;;5.80;99.90;;;;;;5042391;28;20033;-89
2023/12/14 08:43:12;;;;;;;10.55;5.03;;;5.80;99.90;;;;;;5059156;28;20407;-89
2023/12/14 08:45:38;;;;;;;10.93;3.83;;;5.80;99.90;;;;;;5040950;28;20399;-89
2023/12/14 08:48:04;;;;;;;10.27;4.82;;;5.80;99.90;;;;;;5041890;28;20531;-89
2023/12/14 08:50:30;;;;;;;10.70;4.93;;;5.80;99.90;;;;;;5061484;28;20040;-89
2023/12/14 08:52:58;;;;;;;11.13;4.63;;;5.80;99.90;;;;;;5054664;28;20629;-89
2023/12/14 08:55:24;;;;;;;12.23;4.78;;;5.80;99.90;;;;;;5054912;28;20041;-89
2023/12/14 08:57:50;;;;;;;12.80;5.05;;;5.80;99.90;;;;;;5055106;28;20457;-90
2023/12/14 09:00:17;;;;;;;11.25;4.97;;;5.80;99.90;;;;;;5054863;28;20438;-90
2023/12/14 09:02:45;;;;;;;11.70;5.38;;;5.80;99.90;;;;;;5055074;28;20032;-89
2023/12/14 09:05:12;;;;;;;11.07;4.85;;;5.80;99.90;;;;;;5071146;28;20074;-89
2023/12/14 09:07:37;;;;;;;11.75;4.88;;;5.80;99.90;;;;;;5071305;28;20384;-89
2023/12/14 09:10:03;;;;;;;10.95;3.95;;;5.80;99.90;;;;;;5047895;28;20044;-90
2023/12/14 09:12:29;;;;;;;12.68;4.97;;;5.90;99.90;;;;;;5054056;28;20151;-89
2023/12/14 09:14:55;;;;;;;10.95;4.53;;;5.80;99.90;;;;;;5054124;28;20488;-89
2023/12/14 09:17:21;;;;;;;11.82;4.78;;;5.90;99.90;;;;;;5054632;28;20520;-89
2023/12/14 09:19:47;;;;;;;9.82;3.80;;;5.90;99.90;;;;;;5054279;28;20080;-89
2023/12/14 09:22:12;;;;;;;14.30;5.00;;;5.90;99.90;;;;;;5054691;28;20120;-89
2023/12/14 09:24:38;;;;;;;13.90;5.93;;;5.90;99.90;;;;;;5055858;28;20123;-89
2023/12/14 09:27:04;;;;;;;12.70;5.68;;;5.90;99.90;;;;;;5070962;28;20041;-89
2023/12/14 09:29:29;;;;;;;11.57;5.30;;;5.90;99.90;;;;;;5054537;28;20443;-89
2023/12/14 09:31:55;;;;;;;11.95;5.18;;;5.90;99.90;;;;;;5054370;28;20170;-89
2023/12/14 09:34:21;;;;;;;12.15;5.68;;;5.90;99.90;;;;;;5053774;28;20566;-89
2023/12/14 09:36:47;;;;;;;11.60;5.78;;;6.00;99.90;;;;;;5054624;28;20135;-89
2023/12/14 09:39:15;;;;;;;15.00;5.32;;;6.00;99.90;;;;;;5053947;28;20127;-89
2023/12/14 09:41:40;;;;;;;13.10;4.82;;;6.00;99.90;;;;;;5052245;28;20032;-89
2023/12/14 09:44:07;;;;;;;11.63;5.07;;;6.00;99.90;;;;;;5053393;28;20094;-89
2023/12/14 09:46:37;;;;;;;10.90;4.70;;;6.00;99.90;;;;;;5053826;28;20044;-89
2023/12/14 09:49:04;;;;;;;12.88;5.63;;;6.00;99.90;;;;;;5053585;28;20045;-89
2023/12/14 09:51:30;;;;;;;12.25;6.00;;;6.00;99.90;;;;;;5053733;28;20036;-89
2023/12/14 09:53:58;;;;;;;11.65;4.80;;;6.10;99.90;;;;;;5053107;28;20045;-89
2023/12/14 09:56:27;;;;;;;9.77;4.22;;;6.20;99.90;;;;;;5053239;28;20036;-89
2023/12/14 09:58:53;;;;;;;10.35;5.03;;;6.10;99.90;;;;;;5053454;28;20580;-89
2023/12/14 10:01:27;;;;;;;12.32;4.97;;;6.20;99.90;;;;;;5053359;28;20454;-89
2023/12/14 10:04:10;;;;;;;11.93;5.07;;;6.20;99.90;;;;;;5052557;28;20044;-89
2023/12/14 10:06:36;;;;;;;12.82;5.68;;;6.20;99.90;;;;;;5053128;28;20032;-89
2023/12/14 10:09:03;;;;;;;10.80;4.60;;;6.20;99.90;;;;;;5053048;28;20112;-89
2023/12/14 10:11:29;;;;;;;14.05;6.43;;;6.30;99.90;;;;;;5069885;28;20569;-89
2023/12/14 10:13:55;;;;;;;14.05;4.80;;;6.20;99.90;;;;;;5052948;28;20040;-88
2023/12/14 10:16:30;;;;;;;13.73;5.82;;;6.20;99.90;;;;;;5069948;28;20119;-89
2023/12/14 10:18:57;;;;;;;14.55;5.03;;;6.30;99.90;;;;;;5069832;28;20495;-89
2023/12/14 10:21:27;;;;;;;11.30;5.28;;;6.30;99.90;;;;;;5052875;28;20060;-89
2023/12/14 10:23:56;;;;;;;14.27;6.10;;;6.30;99.90;;;;;;5069590;28;20411;-89
2023/12/14 10:26:25;;;;;;;11.18;4.60;;;6.20;99.90;;;;;;5052911;28;20086;-88
2023/12/14 10:28:52;;;;;;;11.18;4.82;;;6.30;99.90;;;;;;5052957;28;20045;-89
2023/12/14 10:31:21;;;;;;;13.70;5.07;;;6.30;99.90;;;;;;5052709;28;20044;-88
2023/12/14 10:33:47;;;;;;;12.50;6.15;;;6.30;99.90;;;;;;5052844;28;20047;-89
2023/12/14 10:36:20;;;;;;;13.68;5.18;;;6.30;99.90;;;;;;5069886;28;20033;-89
2023/12/14 10:38:48;;;;;;;11.57;4.68;;;6.30;99.90;;;;;;5053139;28;20185;-89
2023/12/14 10:41:16;;;;;;;10.05;4.45;;;6.30;99.90;;;;;;5052103;28;20036;-89
2023/12/14 10:43:43;;;;;;;10.82;4.93;;;6.30;99.90;;;;;;5052937;28;20056;-89
2023/12/14 10:46:10;;;;;;;9.60;4.30;;;6.30;99.90;;;;;;5052863;28;20040;-89
2023/12/14 10:48:42;;;;;;;10.45;5.25;;;6.30;99.90;;;;;;5052798;28;20044;-89
2023/12/14 10:51:08;;;;;;;12.73;5.10;;;6.40;99.90;;;;;;5045535;28;20036;-89
2023/12/14 10:53:35;;;;;;;12.13;6.13;;;6.40;99.90;;;;;;5056544;28;20063;-89
2023/12/14 10:56:07;;;;;;;13.20;4.95;;;6.40;99.90;;;;;;5065949;28;20038;-89
2023/12/14 10:58:53;;;;;;;15.60;5.00;;;6.40;99.90;;;;;;5057498;28;20040;-89
2023/12/14 11:01:20;;;;;;;12.43;5.57;;;6.40;99.90;;;;;;5051350;28;20032;-88
2023/12/14 11:03:48;;;;;;;12.75;5.28;;;6.40;99.90;;;;;;5056636;28;20044;-89
2023/12/14 11:06:35;;;;;;;11.80;5.35;;;6.40;99.90;;;;;;5056931;28;20043;-89
2023/12/14 11:09:10;;;;;;;11.27;5.63;;;6.40;99.90;;;;;;5056578;28;20115;-89
2023/12/14 11:11:56;;;;;;;13.27;5.15;;;6.40;99.90;;;;;;5073629;28;20044;-89
2023/12/14 11:14:23;;;;;;;11.50;5.40;;;6.40;99.90;;;;;;5073499;28;20503;-89
2023/12/14 11:16:49;;;;;;;13.13;4.68;;;6.40;99.90;;;;;;5056730;28;20048;-89
2023/12/14 11:19:21;;;;;;;11.13;5.30;;;6.40;99.90;;;;;;5056289;28;20063;-89
2023/12/14 11:22:04;;;;;;;10.23;4.72;;;6.50;99.90;;;;;;5056150;28;20048;-89
2023/12/14 11:24:30;;;;;;;9.75;4.15;;;6.50;99.90;;;;;;5073010;28;20040;-89
2023/12/14 11:26:56;;;;;;;11.18;4.97;;;6.50;99.90;;;;;;5056047;28;20048;-89
2023/12/14 11:29:22;;;;;;;17.10;6.00;;;6.50;99.90;;;;;;5056515;28;20045;-89
2023/12/14 11:31:48;;;;;;;12.63;5.28;;;6.50;99.90;;;;;;5056458;28;20114;-89
2023/12/14 11:34:17;;;;;;;14.32;6.57;;;6.50;99.90;;;;;;5056048;28;20496;-89
2023/12/14 11:36:43;;;;;;;14.55;5.88;;;6.50;99.90;;;;;;5073571;28;20037;-89
2023/12/14 11:39:09;;;;;;;15.02;5.32;;;6.40;99.90;;;;;;5073356;28;20036;-89
2023/12/14 11:41:36;;;;;;;13.10;5.30;;;6.40;99.90;;;;;;5057440;28;20105;-89
2023/12/14 11:44:02;;;;;;;14.30;6.25;;;6.30;99.90;;;;;;5062731;28;20170;-89
2023/12/14 11:46:29;;;;;;;13.32;5.53;;;6.30;99.90;;;;;;5063606;28;20091;-89
2023/12/14 11:48:56;;;;;;;11.65;5.32;;;6.30;99.90;;;;;;5072448;28;20051;-89
2023/12/14 11:51:23;;;;;;;12.63;5.53;;;6.30;99.90;;;;;;5072834;28;20055;-89
2023/12/14 11:53:49;;;;;;;10.80;4.75;;;6.30;99.90;;;;;;5055783;28;20127;-89
2023/12/14 11:56:18;;;;;;;15.05;5.95;;;6.30;99.90;;;;;;5056316;28;20047;-89
2023/12/14 11:58:44;;;;;;;13.80;5.65;;;6.30;99.90;;;;;;5055832;28;20040;-89
2023/12/14 12:01:24;;;;;;;9.65;4.63;;;6.30;99.90;;;;;;5069691;28;20040;-89
2023/12/14 12:03:50;;;;;;;10.80;4.47;;;6.30;99.90;;;;;;5050723;28;20044;-90
2023/12/14 12:06:30;;;;;;;12.95;5.22;;;6.20;99.90;;;;;;5067327;28;20037;-89
2023/12/14 12:08:56;;;;;;;10.77;4.68;;;6.20;99.90;;;;;;5067144;28;20102;-89
2023/12/14 12:11:22;;;;;;;10.90;4.88;;;6.20;99.90;;;;;;5055221;28;20048;-89
2023/12/14 12:13:53;;;;;;;12.25;4.45;;;6.20;99.90;;;;;;5055111;28;20044;-89
2023/12/14 12:16:18;;;;;;;11.25;4.75;;;6.20;99.90;;;;;;5068848;28;20033;-89
2023/12/14 12:18:44;;;;;;;13.43;5.35;;;6.10;99.90;;;;;;5057860;28;20039;-89
2023/12/14 12:21:11;;;;;;;12.25;4.90;;;6.10;99.90;;;;;;5042386;28;20405;-90
2023/12/14 12:23:37;;;;;;;10.23;4.28;;;6.10;99.90;;;;;;5062351;28;20451;-89
2023/12/14 12:26:02;;;;;;;11.88;4.93;;;6.10;99.90;;;;;;5040484;28;20033;-89
2023/12/14 12:28:30;;;;;;;13.68;4.95;;;6.10;99.90;;;;;;5041144;28;20131;-89
2023/12/14 12:30:55;;;;;;;13.40;5.03;;;6.10;99.90;;;;;;5041467;28;20047;-89
2023/12/14 12:33:21;;;;;;;11.18;5.10;;;6.10;99.90;;;;;;5042892;28;20040;-89
2023/12/14 12:35:47;;;;;;;14.98;5.18;;;6.10;99.90;;;;;;5061004;28;20534;-89
2023/12/14 12:38:12;;;;;;;15.63;6.45;;;6.10;99.90;;;;;;5041966;28;20033;-89
2023/12/14 12:40:39;;;;;;;13.65;5.82;;;6.10;99.90;;;;;;5042669;28;20049;-89
2023/12/14 12:43:05;;;;;;;12.68;5.07;;;6.10;99.90;;;;;;5039743;28;20029;-89
2023/12/14 12:45:32;;;;;;;10.82;4.50;;;6.10;99.90;;;;;;5057666;28;20051;-89
2023/12/14 12:47:57;;;;;;;11.20;4.25;;;6.20;99.90;;;;;;5040985;28;20071;-89